Time;durP1;ratioP1;P1;durP2;ratioP2;P2;SDS_P1;SDS_P2;PMS_P1;PMS_P2;Temp;Humidity;BMP_temperature;BMP_pressure;BME280_temperature;BME280_humidity;BME280_pressure;Samples;Min_cycle;Max_cycle;Signal;HPM_P1;HPM_P2
2022/07/24 00:02:10;;;;;;;6.65;6.25;;;;;;;17.02;100.00;101679.19;6073855;23;20544;-74
2022/07/24 00:04:37;;;;;;;7.65;7.22;;;;;;;16.98;100.00;101673.25;6054247;23;20025;-76
2022/07/24 00:07:03;;;;;;;5.38;5.18;;;;;;;16.38;100.00;101592.16;6081366;23;20029;-76
2022/07/24 00:09:30;;;;;;;6.85;6.40;;;;;;;16.31;100.00;101580.25;6073424;23;20596;-74
2022/07/24 00:11:58;;;;;;;5.72;5.40;;;;;;;16.08;100.00;101534.00;6084354;23;20038;-76
2022/07/24 00:14:26;;;;;;;6.60;6.28;;;;;;;16.07;100.00;101524.34;6053454;23;20088;-72
2022/07/24 00:16:52;;;;;;;6.18;5.88;;;;;;;16.03;100.00;101522.84;6080117;23;20036;-73
2022/07/24 00:19:18;;;;;;;5.97;5.68;;;;;;;16.85;100.00;101665.22;6082943;23;20018;-74
2022/07/24 00:21:45;;;;;;;6.05;5.75;;;;;;;15.96;100.00;101525.03;6076679;23;20093;-72
2022/07/24 00:24:11;;;;;;;6.75;6.38;;;;;;;16.20;100.00;101557.09;6083113;23;20040;-75
2022/07/24 00:26:38;;;;;;;7.63;7.07;;;;;;;16.52;100.00;101612.50;6079899;23;20074;-75
2022/07/24 00:29:04;;;;;;;5.93;5.63;;;;;;;16.81;100.00;101660.19;6065381;23;20055;-76
2022/07/24 00:31:32;;;;;;;5.85;5.47;;;;;;;16.78;100.00;101658.56;6061029;23;20018;-75
2022/07/24 00:33:59;;;;;;;6.05;5.75;;;;;;;16.52;100.00;101615.16;6093971;23;20037;-73
2022/07/24 00:36:26;;;;;;;7.30;6.93;;;;;;;16.51;100.00;101629.34;6054051;23;20448;-73
2022/07/24 00:38:52;;;;;;;5.85;5.55;;;;;;;16.21;100.00;101579.13;6078998;23;20020;-73
2022/07/24 00:41:18;;;;;;;5.65;5.35;;;;;;;16.71;100.00;101657.25;6080764;23;20014;-73
2022/07/24 00:44:08;;;;;;;5.78;5.47;;;;;;;16.69;100.00;101653.84;6053162;23;20064;-75
2022/07/24 00:46:36;;;;;;;7.43;7.03;;;;;;;16.51;100.00;101619.59;6045778;23;20032;-75
2022/07/24 00:49:06;;;;;;;5.53;5.22;;;;;;;16.65;100.00;101639.06;6056468;23;20021;-75
2022/07/24 00:51:46;;;;;;;5.80;5.50;;;;;;;16.63;100.00;101641.81;6042177;23;20038;-73
2022/07/24 00:54:13;;;;;;;5.60;5.40;;;;;;;15.75;100.00;101503.34;6062763;23;20069;-76
2022/07/24 00:56:41;;;;;;;5.93;5.63;;;;;;;16.32;100.00;101609.28;6006718;23;20014;-75
2022/07/24 00:59:08;;;;;;;5.85;5.50;;;;;;;16.59;100.00;101653.56;6024550;23;20022;-74
2022/07/24 01:01:34;;;;;;;5.63;5.38;;;;;;;16.41;100.00;101623.75;6054411;23;20030;-73
2022/07/24 01:04:01;;;;;;;5.93;5.53;;;;;;;16.26;100.00;101612.31;6023896;23;20026;-73
2022/07/24 01:06:28;;;;;;;10.27;7.00;;;;;;;16.27;100.00;101606.06;6044194;23;20048;-74
2022/07/24 01:08:55;;;;;;;5.68;5.38;;;;;;;16.47;100.00;101641.06;6005504;23;20013;-76
2022/07/24 01:11:22;;;;;;;7.50;7.10;;;;;;;16.59;100.00;101648.25;6043498;23;20036;-74
2022/07/24 01:13:51;;;;;;;5.32;5.13;;;;;;;16.54;100.00;101648.56;6022812;23;20040;-74
2022/07/24 01:16:17;;;;;;;5.45;5.15;;;;;;;15.93;100.00;101559.63;6051727;23;20043;-74
2022/07/24 01:18:44;;;;;;;5.75;5.45;;;;;;;16.50;100.00;101655.00;6037243;23;20054;-73
2022/07/24 01:21:11;;;;;;;5.78;5.47;;;;;;;16.25;100.00;101615.91;6051727;23;20028;-73
2022/07/24 01:23:37;;;;;;;6.90;6.60;;;;;;;16.46;100.00;101648.19;6040734;23;20097;-72
2022/07/24 01:26:07;;;;;;;6.03;5.72;;;;;;;16.23;100.00;101598.41;6055639;23;20184;-72
2022/07/24 01:28:35;;;;;;;6.72;6.32;;;;;;;16.50;100.00;101643.56;6045052;23;20010;-74
2022/07/24 01:31:02;;;;;;;6.22;5.72;;;;;;;16.35;100.00;101626.78;6051096;23;20026;-73
2022/07/24 01:33:29;;;;;;;6.75;6.45;;;;;;;15.90;100.00;101544.78;6057579;23;20101;-75
2022/07/24 01:35:55;;;;;;;5.90;5.60;;;;;;;16.46;100.00;101631.44;6036569;23;20010;-74
2022/07/24 01:38:21;;;;;;;5.82;5.53;;;;;;;16.20;100.00;101595.97;6042546;23;20030;-74
2022/07/24 01:40:48;;;;;;;5.35;5.13;;;;;;;16.11;100.00;101577.03;6043687;23;20017;-73
2022/07/24 01:43:14;;;;;;;5.28;5.07;;;;;;;16.13;100.00;101584.88;6051925;23;20034;-73
2022/07/24 01:45:41;;;;;;;6.32;6.03;;;;;;;16.45;100.00;101629.72;6038308;23;20026;-75
2022/07/24 01:48:11;;;;;;;6.95;6.55;;;;;;;15.73;100.00;101516.69;6039501;23;20391;-77
2022/07/24 01:50:37;;;;;;;7.20;6.80;;;;;;;16.00;100.00;101562.75;6056372;23;20073;-75
2022/07/24 01:53:04;;;;;;;5.40;5.20;;;;;;;16.22;100.00;101594.06;6056396;23;20094;-74
2022/07/24 01:55:30;;;;;;;7.32;6.93;;;;;;;15.89;100.00;101550.16;6056040;23;20395;-74
2022/07/24 01:57:57;;;;;;;6.05;5.68;;;;;;;16.03;100.00;101586.38;6050285;23;20078;-74
2022/07/24 02:00:24;;;;;;;7.10;6.70;;;;;;;16.08;100.00;101584.31;6050540;23;20015;-74
2022/07/24 02:02:50;;;;;;;6.53;6.13;;;;;;;16.28;100.00;101620.19;6056761;23;20041;-75
2022/07/24 02:05:17;;;;;;;5.70;5.40;;;;;;;16.16;100.00;101592.66;6054690;23;20014;-74
2022/07/24 02:07:55;;;;;;;6.03;5.72;;;;;;;16.18;100.00;101595.19;6054294;23;20021;-75
2022/07/24 02:10:23;;;;;;;6.18;5.82;;;;;;;15.97;100.00;101568.22;6056040;23;20018;-73
2022/07/24 02:12:49;;;;;;;6.63;6.22;;;;;;;16.14;100.00;101594.53;6056072;23;20086;-74
2022/07/24 02:15:16;;;;;;;6.05;5.72;;;;;;;16.09;100.00;101586.00;6059074;23;20078;-75
2022/07/24 02:17:47;;;;;;;6.18;5.88;;;;;;;16.29;100.00;101609.47;6054106;23;20107;-74
2022/07/24 02:20:13;;;;;;;6.05;5.60;;;;;;;16.27;100.00;101616.66;6047977;23;20023;-74
2022/07/24 02:22:40;;;;;;;6.55;6.25;;;;;;;15.54;100.00;101501.03;6024739;23;20106;-74
2022/07/24 02:25:07;;;;;;;5.90;5.50;;;;;;;15.93;100.00;101571.06;6052599;23;20034;-75
2022/07/24 02:27:34;;;;;;;6.82;6.43;;;;;;;16.23;100.00;101609.00;6044492;23;20018;-74
2022/07/24 02:30:01;;;;;;;5.93;5.63;;;;;;;16.08;100.00;101586.97;6014256;23;20042;-71
2022/07/24 02:32:27;;;;;;;7.10;6.70;;;;;;;15.86;100.00;101537.97;6068341;23;20018;-70
2022/07/24 02:34:54;;;;;;;6.20;5.80;;;;;;;16.12;100.00;101601.72;6026706;23;20022;-73
2022/07/24 02:37:20;;;;;;;6.05;5.75;;;;;;;16.22;100.00;101599.38;6040129;23;20463;-73
2022/07/24 02:39:47;;;;;;;6.63;6.22;;;;;;;15.85;100.00;101552.13;6027806;23;20035;-71
2022/07/24 02:42:13;;;;;;;6.63;6.22;;;;;;;15.84;100.00;101539.03;6049883;23;20043;-73
2022/07/24 02:44:39;;;;;;;6.90;6.50;;;;;;;15.70;100.00;101516.84;6060937;23;20030;-70
2022/07/24 02:47:06;;;;;;;6.22;5.70;;;;;;;15.85;100.00;101554.78;6053245;23;20068;-71
2022/07/24 02:49:32;;;;;;;7.57;7.18;;;;;;;15.99;100.00;101592.81;6017098;23;20039;-73
2022/07/24 02:51:59;;;;;;;6.15;5.70;;;;;;;15.61;100.00;101517.41;6059072;23;20021;-73
2022/07/24 02:54:25;;;;;;;7.53;7.13;;;;;;;16.11;100.00;101592.91;6021957;23;20097;-73
2022/07/24 02:56:52;;;;;;;6.00;5.70;;;;;;;15.38;100.00;101484.41;6059435;23;20026;-74
2022/07/24 02:59:18;;;;;;;5.60;5.30;;;;;;;14.96;100.00;101414.63;6056616;23;20178;-74
2022/07/24 03:01:44;;;;;;;5.80;5.50;;;;;;;15.73;100.00;101547.59;6028481;23;20787;-72
2022/07/24 03:04:11;;;;;;;5.68;5.38;;;;;;;15.84;100.00;101555.75;6064174;23;20177;-73
2022/07/24 03:06:37;;;;;;;7.22;6.85;;;;;;;16.02;100.00;101585.53;6054161;23;20046;-71
2022/07/24 03:09:06;;;;;;;5.95;5.65;;;;;;;15.66;100.00;101525.91;6028673;23;20019;-72
2022/07/24 03:11:33;;;;;;;7.25;6.80;;;;;;;15.06;100.00;101425.50;6054988;23;20019;-71
2022/07/24 03:13:59;;;;;;;5.57;5.30;;;;;;;15.99;100.00;101584.88;6049470;23;20018;-71
2022/07/24 03:16:26;;;;;;;6.43;6.13;;;;;;;16.01;100.00;101585.63;6060323;23;20037;-71
2022/07/24 03:18:52;;;;;;;5.88;5.57;;;;;;;16.00;100.00;101587.44;6057872;23;20112;-72
2022/07/24 03:21:19;;;;;;;5.88;5.57;;;;;;;14.91;100.00;101400.81;6054622;23;20026;-73
2022/07/24 03:24:05;;;;;;;6.03;5.72;;;;;;;16.03;100.00;101599.63;6057605;23;20041;-71
2022/07/24 03:26:32;;;;;;;5.95;5.65;;;;;;;15.99;100.00;101559.25;6030928;23;20022;-71
2022/07/24 03:28:58;;;;;;;5.75;5.45;;;;;;;16.01;100.00;101598.88;6059874;23;20034;-72
2022/07/24 03:31:25;;;;;;;5.70;5.40;;;;;;;15.62;100.00;101537.63;6047467;23;20034;-72
2022/07/24 03:33:51;;;;;;;6.50;6.07;;;;;;;15.34;100.00;101494.31;6063657;23;20024;-74
2022/07/24 03:36:17;;;;;;;5.70;5.40;;;;;;;15.62;100.00;101545.56;6063149;23;20348;-71
2022/07/24 03:38:44;;;;;;;6.50;6.10;;;;;;;15.16;100.00;101480.38;6032544;23;20038;-72
2022/07/24 03:41:10;;;;;;;6.05;5.72;;;;;;;15.18;100.00;101487.38;6051564;23;20018;-72
2022/07/24 03:43:37;;;;;;;6.28;5.90;;;;;;;15.29;100.00;101498.16;6053525;23;20026;-71
2022/07/24 03:46:03;;;;;;;6.13;5.72;;;;;;;15.38;100.00;101510.84;6035745;23;20109;-71
2022/07/24 03:48:30;;;;;;;7.72;7.32;;;;;;;14.95;100.00;101474.56;6051077;23;20030;-71
2022/07/24 03:50:56;;;;;;;5.50;5.22;;;;;;;15.23;100.00;101488.78;6045438;23;20502;-72
2022/07/24 03:53:23;;;;;;;6.47;6.15;;;;;;;15.57;100.00;101539.69;6043693;23;20015;-74
2022/07/24 03:55:52;;;;;;;5.93;5.63;;;;;;;15.89;100.00;101580.13;6021884;23;20034;-71
2022/07/24 03:58:18;;;;;;;5.90;5.60;;;;;;;15.62;100.00;101531.50;6053928;23;20018;-72
2022/07/24 04:00:45;;;;;;;6.13;5.72;;;;;;;15.86;100.00;101553.00;6052648;23;20024;-74
2022/07/24 04:03:11;;;;;;;5.32;5.13;;;;;;;15.54;100.00;101489.63;6004823;23;20521;-74
2022/07/24 04:05:38;;;;;;;6.28;5.97;;;;;;;16.18;100.00;101585.47;6035291;23;20022;-71
2022/07/24 04:08:17;;;;;;;6.32;5.93;;;;;;;16.27;100.00;101584.88;6062852;23;20094;-72
2022/07/24 04:10:44;;;;;;;5.82;5.53;;;;;;;16.25;100.00;101562.94;6042939;23;20015;-72
2022/07/24 04:13:10;;;;;;;5.90;5.60;;;;;;;16.45;100.00;101576.72;6055902;23;20440;-72
2022/07/24 04:15:36;;;;;;;6.75;6.45;;;;;;;16.51;100.00;101579.00;6021087;23;20085;-72
2022/07/24 04:18:03;;;;;;;5.70;5.40;;;;;;;16.64;100.00;101582.56;6056188;23;20022;-72
2022/07/24 04:20:29;;;;;;;6.43;6.10;;;;;;;16.28;100.00;101491.22;6039687;23;20036;-73
2022/07/24 04:22:56;;;;;;;5.85;5.55;;;;;;;17.01;100.00;101568.78;5998779;23;20043;-72
2022/07/24 04:25:23;;;;;;;6.22;5.93;;;;;;;17.02;100.00;101573.13;6051013;23;20191;-72
2022/07/24 04:27:49;;;;;;;5.93;5.63;;;;;;;17.05;100.00;101573.75;6048113;23;20019;-72
2022/07/24 04:30:16;;;;;;;5.95;5.60;;;;;;;16.88;100.00;101582.00;6058362;23;20553;-71
2022/07/24 04:32:42;;;;;;;6.43;6.03;;;;;;;16.43;100.00;101530.94;6045694;23;20123;-71
2022/07/24 04:35:09;;;;;;;6.03;5.72;;;;;;;16.85;100.00;101572.41;6058623;23;20033;-71
2022/07/24 04:37:35;;;;;;;7.15;6.78;;;;;;;16.89;100.00;101584.53;6045113;23;20027;-72
2022/07/24 04:40:02;;;;;;;5.78;5.47;;;;;;;16.67;100.00;101508.16;6048463;23;20018;-70
2022/07/24 04:42:29;;;;;;;6.80;6.50;;;;;;;17.32;100.00;101578.22;6043690;23;20022;-72
2022/07/24 04:44:55;;;;;;;6.40;6.10;;;;;;;17.54;100.00;101573.16;6056440;23;20033;-71
2022/07/24 04:47:22;;;;;;;6.18;5.88;;;;;;;17.46;100.00;101533.03;6018094;23;20026;-70
2022/07/24 04:49:48;;;;;;;5.90;5.60;;;;;;;17.96;99.32;101573.03;6020779;23;20381;-70
2022/07/24 04:52:14;;;;;;;6.70;6.25;;;;;;;18.01;97.66;101581.50;6048745;23;20026;-70
2022/07/24 04:54:41;;;;;;;6.10;5.80;;;;;;;17.88;98.55;101576.22;6016546;23;20051;-70
2022/07/24 04:57:07;;;;;;;6.05;5.75;;;;;;;17.68;98.25;101550.13;6058029;23;20185;-71
2022/07/24 04:59:34;;;;;;;6.03;5.70;;;;;;;17.31;98.64;101452.66;6060636;23;20104;-72
2022/07/24 05:02:00;;;;;;;5.97;5.68;;;;;;;18.32;94.24;101518.22;6049722;23;20002;-71
2022/07/24 05:04:27;;;;;;;7.43;7.07;;;;;;;18.57;90.04;101477.44;6009467;23;20026;-72
2022/07/24 05:06:53;;;;;;;6.72;6.32;;;;;;;18.84;89.36;101548.19;6046501;23;20022;-71
2022/07/24 05:09:20;;;;;;;6.43;6.07;;;;;;;19.48;87.95;101567.34;6023093;23;20468;-71
2022/07/24 05:11:46;;;;;;;6.20;5.90;;;;;;;19.83;84.44;101570.94;6019779;23;20409;-71
2022/07/24 05:14:13;;;;;;;6.70;6.30;;;;;;;20.12;82.83;101574.81;6052187;23;20573;-70
2022/07/24 05:16:39;;;;;;;7.20;6.82;;;;;;;20.56;80.30;101563.41;6034080;23;20179;-70
2022/07/24 05:19:07;;;;;;;6.07;5.78;;;;;;;19.95;78.50;101404.81;6035691;23;20034;-70
2022/07/24 05:21:34;;;;;;;7.65;7.00;;;;;;;21.09;75.00;101561.72;6047514;23;20067;-71
2022/07/24 05:24:01;;;;;;;6.38;6.07;;;;;;;20.41;77.52;101505.03;6052638;23;20320;-73
2022/07/24 05:26:31;;;;;;;8.38;7.78;;;;;;;21.23;75.55;101554.41;6039573;23;20017;-71
2022/07/24 05:28:59;;;;;;;6.47;6.13;;;;;;;21.46;74.96;101539.13;6031760;23;20021;-71
2022/07/24 05:31:25;;;;;;;6.22;5.93;;;;;;;21.12;74.52;101532.09;6026574;23;20026;-71
2022/07/24 05:33:52;;;;;;;6.60;6.28;;;;;;;21.48;73.99;101535.34;6019948;23;20026;-70
2022/07/24 05:36:19;;;;;;;6.95;6.45;;;;;;;21.96;72.56;101554.44;6049130;23;20109;-71
2022/07/24 05:38:47;;;;;;;6.45;6.07;;;;;;;22.12;71.31;101581.53;6052963;23;20487;-71
2022/07/24 05:41:13;;;;;;;6.68;6.28;;;;;;;22.11;69.96;101511.19;6032596;23;20512;-71
2022/07/24 05:43:40;;;;;;;6.20;5.90;;;;;;;21.75;69.13;101482.31;6057134;23;20018;-71
2022/07/24 05:46:06;;;;;;;6.40;6.10;;;;;;;21.88;69.83;101598.72;6055134;23;20023;-73
2022/07/24 05:48:33;;;;;;;7.80;7.35;;;;;;;21.75;72.18;101603.44;6032389;23;20359;-72
2022/07/24 05:51:00;;;;;;;6.80;6.40;;;;;;;21.26;71.12;101519.41;6056901;23;20023;-73
2022/07/24 05:53:26;;;;;;;7.93;7.43;;;;;;;22.59;69.80;101581.88;6021742;23;20021;-71
2022/07/24 05:55:52;;;;;;;6.65;6.25;;;;;;;22.85;67.67;101568.84;6022780;23;22940;-73
2022/07/24 05:58:19;;;;;;;6.55;6.25;;;;;;;21.75;66.73;101436.91;6056144;23;20191;-73
2022/07/24 06:00:46;;;;;;;6.50;6.10;;;;;;;23.02;67.51;101586.06;6040041;23;20106;-72
2022/07/24 06:03:12;;;;;;;6.93;6.53;;;;;;;22.83;65.92;101565.44;6006209;23;20074;-70
2022/07/24 06:05:39;;;;;;;7.53;7.13;;;;;;;23.54;66.02;101591.13;6055617;23;20413;-72
2022/07/24 06:08:06;;;;;;;6.30;6.00;;;;;;;23.66;63.06;101578.41;6013647;23;20022;-71
2022/07/24 06:10:32;;;;;;;7.50;7.10;;;;;;;23.60;63.96;101501.28;6056027;23;20021;-71
2022/07/24 06:12:59;;;;;;;6.53;6.22;;;;;;;23.22;60.94;101358.44;6027384;23;20062;-71
2022/07/24 06:15:25;;;;;;;6.63;6.32;;;;;;;24.32;61.17;101584.72;6018696;23;20023;-72
2022/07/24 06:17:52;;;;;;;6.55;6.15;;;;;;;24.60;61.18;101575.69;6042982;23;20018;-73
2022/07/24 06:20:18;;;;;;;6.63;6.22;;;;;;;24.62;59.52;101571.03;6042452;23;20101;-72
2022/07/24 06:22:45;;;;;;;6.63;6.20;;;;;;;23.59;60.80;101508.44;6024321;23;20030;-71
2022/07/24 06:25:15;;;;;;;6.75;6.35;;;;;;;23.98;61.03;101579.91;6057783;23;20018;-71
2022/07/24 06:27:43;;;;;;;6.47;6.03;;;;;;;23.76;62.76;101589.13;6043152;23;20025;-72
2022/07/24 06:30:14;;;;;;;6.60;6.20;;;;;;;23.28;64.83;101596.22;6029975;23;20031;-71
2022/07/24 06:32:40;;;;;;;7.85;7.35;;;;;;;22.93;63.71;101500.34;6048389;23;20010;-70
2022/07/24 06:35:08;;;;;;;6.50;6.20;;;;;;;22.93;64.42;101519.09;6037620;23;20490;-71
2022/07/24 06:37:34;;;;;;;7.65;7.25;;;;;;;23.20;65.22;101596.91;6043573;23;20053;-72
2022/07/24 06:40:01;;;;;;;7.10;6.47;;;;;;;22.77;65.33;101559.78;6034101;23;20314;-70
2022/07/24 06:42:27;;;;;;;8.35;7.85;;;;;;;22.61;67.33;101595.09;6031670;23;20101;-71
2022/07/24 06:44:54;;;;;;;6.90;6.50;;;;;;;22.70;69.01;101611.19;6071481;23;20025;-71
2022/07/24 06:47:20;;;;;;;7.30;6.90;;;;;;;22.50;67.70;101588.88;6079397;23;20470;-72
2022/07/24 06:49:46;;;;;;;6.82;6.32;;;;;;;22.78;66.92;101609.66;6049030;23;20033;-72
2022/07/24 06:52:19;;;;;;;6.82;6.43;;;;;;;22.63;66.64;101610.06;6071534;23;20030;-72
2022/07/24 06:54:46;;;;;;;6.68;6.28;;;;;;;22.68;68.52;101610.47;6076035;23;20030;-71
2022/07/24 06:57:13;;;;;;;6.88;6.47;;;;;;;22.62;69.32;101604.84;6046970;23;20081;-70
2022/07/24 06:59:40;;;;;;;7.35;6.93;;;;;;;22.79;68.60;101608.66;6073390;23;20021;-71
2022/07/24 07:02:07;;;;;;;6.65;6.35;;;;;;;21.78;68.35;101428.63;6050145;23;20022;-71
2022/07/24 07:04:33;;;;;;;6.75;6.35;;;;;;;22.90;67.43;101600.53;6067967;23;20052;-72
2022/07/24 07:07:01;;;;;;;6.65;6.15;;;;;;;22.77;67.08;101599.94;6076294;23;20085;-72
2022/07/24 07:09:28;;;;;;;7.88;7.47;;;;;;;22.87;67.48;101598.97;6047107;23;20505;-71
2022/07/24 07:11:54;;;;;;;6.57;6.22;;;;;;;23.00;65.25;101603.22;6046480;23;20081;-71
2022/07/24 07:14:21;;;;;;;6.57;6.22;;;;;;;23.08;64.79;101604.25;6065968;23;20075;-72
2022/07/24 07:16:48;;;;;;;6.38;6.07;;;;;;;22.95;63.21;101605.47;6069806;23;20019;-70
2022/07/24 07:19:14;;;;;;;6.45;6.13;;;;;;;23.05;64.36;101617.94;6054362;23;20026;-72
2022/07/24 07:21:41;;;;;;;7.22;6.82;;;;;;;22.69;64.52;101528.38;6049969;23;20388;-72
2022/07/24 07:24:07;;;;;;;6.85;6.45;;;;;;;23.48;63.67;101608.59;6075386;23;20069;-70
2022/07/24 07:26:34;;;;;;;7.55;7.05;;;;;;;23.48;62.24;101611.28;6056014;23;20026;-70
2022/07/24 07:29:00;;;;;;;7.10;6.60;;;;;;;23.47;63.06;101609.63;6050226;23;20014;-73
2022/07/24 07:31:27;;;;;;;7.28;6.97;;;;;;;23.51;63.99;101588.72;6068939;23;20165;-72
2022/07/24 07:33:54;;;;;;;6.55;6.25;;;;;;;23.65;60.92;101600.81;6050241;23;20028;-72
2022/07/24 07:36:21;;;;;;;6.65;6.30;;;;;;;23.39;59.84;101529.09;6078680;23;20030;-72
2022/07/24 07:38:47;;;;;;;6.45;6.13;;;;;;;23.77;59.50;101548.78;6042729;23;20073;-71
2022/07/24 07:41:13;;;;;;;6.85;6.45;;;;;;;24.25;59.63;101592.50;6077535;23;20046;-72
2022/07/24 07:43:41;;;;;;;6.78;6.38;;;;;;;24.35;58.64;101592.47;6073712;23;20414;-71
2022/07/24 07:46:07;;;;;;;7.00;6.50;;;;;;;24.33;58.55;101548.84;6052118;23;20055;-72
2022/07/24 07:48:33;;;;;;;7.45;7.05;;;;;;;24.52;57.14;101574.78;6078568;23;20356;-72
2022/07/24 07:51:00;;;;;;;7.00;6.40;;;;;;;24.70;57.33;101591.75;6073543;23;20044;-71
2022/07/24 07:53:26;;;;;;;8.00;7.50;;;;;;;23.87;57.55;101431.66;6051000;23;20459;-71
2022/07/24 07:55:53;;;;;;;6.35;6.05;;;;;;;24.75;56.25;101585.91;6069872;23;20078;-70
2022/07/24 07:58:20;;;;;;;6.55;6.18;;;;;;;24.28;58.05;101594.91;6057764;23;20097;-71
2022/07/24 08:00:46;;;;;;;6.35;6.05;;;;;;;24.50;57.43;101601.75;6071862;23;20283;-71
2022/07/24 08:03:13;;;;;;;6.53;6.22;;;;;;;24.31;59.19;101604.47;6079944;23;20101;-70
2022/07/24 08:05:39;;;;;;;7.53;7.13;;;;;;;24.59;58.24;101589.25;6045678;23;20569;-71
2022/07/24 08:08:06;;;;;;;6.75;6.32;;;;;;;24.44;57.67;101594.25;6081830;23;20030;-71
2022/07/24 08:10:33;;;;;;;20.80;19.70;;;;;;;24.41;58.92;101581.97;5896667;23;20906;-73
2022/07/24 08:13:00;;;;;;;6.43;6.03;;;;;;;24.03;59.58;101586.50;6028155;23;20117;-71
2022/07/24 08:15:26;;;;;;;7.05;6.65;;;;;;;24.13;59.48;101543.56;6074909;23;20025;-73
2022/07/24 08:17:54;;;;;;;7.05;6.32;;;;;;;24.64;59.40;101565.50;6042730;23;20035;-71
2022/07/24 08:20:22;;;;;;;6.78;6.38;;;;;;;24.99;58.01;101570.03;6067991;23;20613;-71
2022/07/24 08:22:49;;;;;;;6.50;6.18;;;;;;;25.30;56.75;101571.50;6049247;23;20365;-71
2022/07/24 08:25:17;;;;;;;6.70;6.30;;;;;;;25.33;56.28;101545.19;6075451;23;20467;-71
2022/07/24 08:27:46;;;;;;;7.28;6.88;;;;;;;25.52;54.54;101565.66;6078230;23;20030;-72
2022/07/24 08:30:13;;;;;;;6.13;5.82;;;;;;;24.85;54.93;101471.25;6049508;23;20117;-74
2022/07/24 08:32:40;;;;;;;6.80;6.30;;;;;;;25.39;55.29;101527.59;6061707;23;20024;-70
2022/07/24 08:35:07;;;;;;;6.35;6.05;;;;;;;25.33;54.46;101485.25;6071331;23;20383;-73
2022/07/24 08:37:37;;;;;;;8.35;7.85;;;;;;;25.45;53.90;101471.38;6061628;23;20022;-71
2022/07/24 08:40:05;;;;;;;6.97;6.47;;;;;;;25.14;52.89;101413.69;6052266;23;20278;-71
2022/07/24 08:42:31;;;;;;;8.27;7.78;;;;;;;26.28;51.88;101561.41;6065835;23;20026;-72
2022/07/24 08:44:58;;;;;;;6.20;5.90;;;;;;;25.95;51.29;101474.34;6079766;23;20412;-70
2022/07/24 08:47:29;;;;;;;7.68;7.28;;;;;;;26.29;50.30;101516.50;6056617;23;20151;-72
2022/07/24 08:49:57;;;;;;;7.20;6.70;;;;;;;26.35;49.22;101558.91;6041541;23;20498;-71
2022/07/24 08:52:24;;;;;;;7.38;6.97;;;;;;;26.23;51.03;101553.81;6067741;23;20026;-71
2022/07/24 08:54:52;;;;;;;6.82;6.43;;;;;;;26.25;51.64;101543.72;6065535;23;20260;-70
2022/07/24 08:57:18;;;;;;;6.72;6.35;;;;;;;25.43;51.43;101529.81;6060233;23;20161;-74
2022/07/24 08:59:45;;;;;;;6.72;6.32;;;;;;;25.86;52.58;101552.28;6062288;23;20033;-72
2022/07/24 09:02:11;;;;;;;6.70;6.40;;;;;;;25.29;53.11;101487.38;6066471;23;20032;-72
2022/07/24 09:04:46;;;;;;;7.93;7.40;;;;;;;25.48;52.79;101478.28;6061392;23;20017;-72
2022/07/24 09:07:18;;;;;;;6.45;6.10;;;;;;;26.42;51.74;101531.19;6039725;23;20174;-71
2022/07/24 09:10:03;;;;;;;7.13;6.72;;;;;;;26.64;51.33;101535.13;6078047;23;20089;-70
2022/07/24 09:12:35;;;;;;;7.68;7.28;;;;;;;26.68;50.52;101524.84;6050711;23;20025;-72
2022/07/24 09:15:11;;;;;;;6.88;6.47;;;;;;;27.10;50.43;101518.47;6043661;23;20022;-73
2022/07/24 09:17:47;;;;;;;7.55;7.15;;;;;;;27.39;50.16;101528.78;6066408;23;20026;-73
2022/07/24 09:20:14;;;;;;;6.85;6.45;;;;;;;27.31;48.34;101515.31;6067501;23;20029;-71
2022/07/24 09:22:42;;;;;;;7.22;6.82;;;;;;;27.43;48.33;101535.50;6045026;23;20033;-73
2022/07/24 09:25:12;;;;;;;6.80;6.45;;;;;;;27.57;46.87;101500.78;6049169;23;20055;-72
2022/07/24 09:28:01;;;;;;;7.25;6.85;;;;;;;27.40;48.95;101467.63;6064071;23;20272;-71
2022/07/24 09:30:34;;;;;;;7.45;7.05;;;;;;;27.83;47.16;101498.66;6043205;23;20420;-73
2022/07/24 09:33:07;;;;;;;6.68;6.35;;;;;;;27.92;48.02;101494.09;6068096;23;20439;-72
2022/07/24 09:35:37;;;;;;;9.68;7.63;;;;;;;27.82;48.10;101478.13;6044130;23;20036;-72
2022/07/24 09:38:09;;;;;;;6.93;6.53;;;;;;;27.53;47.22;101438.28;6077485;23;20527;-72
2022/07/24 09:40:38;;;;;;;7.63;7.22;;;;;;;27.57;47.93;101471.97;6069715;23;20029;-72
2022/07/24 09:43:26;;;;;;;6.88;6.47;;;;;;;28.03;48.54;101482.94;6073377;23;20112;-75
2022/07/24 09:46:11;;;;;;;6.95;6.50;;;;;;;28.12;47.46;101491.00;6050529;23;20048;-71
2022/07/24 09:48:40;;;;;;;7.45;7.05;;;;;;;28.34;47.63;101489.34;6047229;23;20053;-71
2022/07/24 09:51:13;;;;;;;6.45;6.13;;;;;;;28.37;46.84;101476.34;6048327;23;20351;-70
2022/07/24 09:53:41;;;;;;;7.65;7.25;;;;;;;28.19;45.92;101486.59;6043835;23;20078;-70
2022/07/24 09:56:11;;;;;;;6.93;6.32;;;;;;;28.03;46.92;101495.59;6050287;23;20046;-71
2022/07/24 09:58:40;;;;;;;7.55;7.15;;;;;;;28.35;46.61;101474.84;6059176;23;20265;-71
2022/07/24 10:01:08;;;;;;;6.60;6.20;;;;;;;28.23;45.97;101456.34;6040150;23;20500;-71
2022/07/24 10:03:39;;;;;;;7.78;7.38;;;;;;;28.65;46.17;101462.34;6005529;23;20019;-71
2022/07/24 10:06:09;;;;;;;6.80;6.30;;;;;;;28.70;45.50;101473.44;6053776;23;20093;-71
2022/07/24 10:08:38;;;;;;;7.45;7.05;;;;;;;28.52;46.23;101421.59;6007842;23;20082;-70
2022/07/24 10:11:05;;;;;;;6.68;6.18;;;;;;;28.60;44.10;101452.06;6050399;23;20093;-73
2022/07/24 10:13:32;;;;;;;7.30;6.78;;;;;;;28.10;45.37;101471.44;5995586;23;20018;-71
2022/07/24 10:16:13;;;;;;;7.85;7.35;;;;;;;28.03;47.11;101479.41;6053418;23;20040;-72
2022/07/24 10:18:59;;;;;;;7.00;6.60;;;;;;;28.57;45.88;101468.66;6050620;23;20032;-72
2022/07/24 10:21:37;;;;;;;7.07;6.68;;;;;;;28.91;44.58;101458.44;6014517;23;20010;-71
2022/07/24 10:24:04;;;;;;;6.68;6.28;;;;;;;29.16;44.68;101456.34;6062039;23;20014;-71
2022/07/24 10:26:37;;;;;;;7.05;6.65;;;;;;;29.44;43.28;101449.28;6048655;23;20440;-71
2022/07/24 10:29:15;;;;;;;6.43;6.13;;;;;;;29.51;43.04;101441.28;6021810;23;20034;-70
2022/07/24 10:31:44;;;;;;;7.30;6.90;;;;;;;29.71;41.68;101448.81;6054167;23;20050;-71
2022/07/24 10:34:33;;;;;;;6.82;6.43;;;;;;;29.43;42.61;101379.19;6053502;23;20379;-70
2022/07/24 10:37:26;;;;;;;6.53;6.20;;;;;;;29.83;42.74;101414.88;6021101;23;20148;-70
2022/07/24 10:40:03;;;;;;;6.78;6.38;;;;;;;29.71;41.63;101449.69;6048397;23;20166;-71
2022/07/24 10:42:30;;;;;;;7.75;7.35;;;;;;;29.59;41.84;101394.38;6039007;23;20065;-71
2022/07/24 10:45:17;;;;;;;6.88;6.47;;;;;;;29.70;41.24;101455.25;6043820;23;20372;-72
2022/07/24 10:47:45;;;;;;;6.60;6.30;;;;;;;29.71;41.69;101438.88;6075085;23;20127;-71
2022/07/24 10:50:14;;;;;;;6.70;6.30;;;;;;;29.47;41.46;101410.22;6050285;23;20030;-72
2022/07/24 10:52:41;;;;;;;7.03;6.63;;;;;;;29.36;41.98;101413.38;6071869;23;20251;-73
2022/07/24 10:55:33;;;;;;;6.93;6.47;;;;;;;29.90;40.58;101447.41;6059061;23;20014;-73
2022/07/24 10:58:12;;;;;;;6.43;6.05;;;;;;;30.08;40.58;101441.59;6073564;23;20019;-71
2022/07/24 11:00:44;;;;;;;7.45;6.97;;;;;;;29.55;39.54;101407.41;6066083;23;20264;-71
2022/07/24 11:03:18;;;;;;;6.80;6.40;;;;;;;30.06;40.65;101436.38;6042195;23;20015;-71
2022/07/24 11:06:08;;;;;;;6.18;5.88;;;;;;;30.28;39.62;101437.22;6076303;23;20375;-71
2022/07/24 11:08:50;;;;;;;7.13;6.70;;;;;;;30.26;39.53;101433.88;6072850;23;20218;-72
2022/07/24 11:11:23;;;;;;;6.88;6.47;;;;;;;29.47;40.00;101295.78;6079647;23;20049;-69
2022/07/24 11:13:53;;;;;;;6.75;6.35;;;;;;;30.49;39.59;101430.16;6054829;23;20097;-72
2022/07/24 11:16:27;;;;;;;6.90;6.55;;;;;;;30.54;39.01;101427.72;6062763;23;20507;-72
2022/07/24 11:18:53;;;;;;;6.88;6.47;;;;;;;30.77;40.67;101422.94;6055554;23;20096;-71
2022/07/24 11:21:32;;;;;;;7.78;7.38;;;;;;;30.84;37.84;101427.56;6070898;23;20030;-71
2022/07/24 11:24:15;;;;;;;6.68;6.28;;;;;;;30.82;37.05;101420.47;6051255;23;20019;-70
2022/07/24 11:26:56;;;;;;;7.47;6.85;;;;;;;30.79;39.25;101426.28;6065966;23;20115;-72
2022/07/24 11:29:27;;;;;;;7.20;6.80;;;;;;;30.40;38.56;101392.38;6015601;23;20077;-71